Terminal Aerodrome Forecast
Issued by NWS

Home | Current Version | Previous Version | Graphics & Text | Print | Product List | Glossary On
Versions: 1 2 3 4 5 6 7 8 9 10 11 12 13 14 15 16 17 18 19 20 21 22
000
FTUS43 KGRB 161728
TAFMTW
TAF
KMTW 161728Z 1618/1718 35010KT P6SM SCT040 SCT200
     FM162300 32006KT P6SM SCT110
     FM170300 29006KT P6SM FEW200
     FM170900 27010G18KT P6SM SCT250
     FM171100 26011KT P6SM BKN090
     FM171600 26015G25KT P6SM BKN200=

USA.gov is the U.S. government's official web portal to all federal, state and local government web resources and services.